Time;durP1;ratioP1;P1;durP2;ratioP2;P2;SDS_P1;SDS_P2;PMS_P1;PMS_P2;Temp;Humidity;BMP_temperature;BMP_pressure;BME280_temperature;BME280_humidity;BME280_pressure;Samples;Min_cycle;Max_cycle;Signal;HPM_P1;HPM_P2
2021/06/15 13:41:39;;;;;;;14.47;3.83;;;;;;;29.92;27.07;99073.37;2182426;82;21056;-65
2021/06/15 19:18:27;;;;;;;19.93;5.63;;;;;;;21.28;41.78;99039.50;2174606;81;21007;-67
2021/06/15 19:21:28;;;;;;;17.90;5.90;;;;;;;20.94;42.33;99045.59;2174443;82;21503;-67
2021/06/15 19:24:28;;;;;;;22.50;6.30;;;;;;;20.62;43.16;99050.13;2174806;82;21032;-74
2021/06/15 19:27:29;;;;;;;23.00;5.87;;;;;;;20.33;43.82;99052.02;2175067;82;20988;-69
2021/06/15 19:30:29;;;;;;;28.07;7.60;;;;;;;20.07;44.61;99052.73;2174861;82;20965;-71
2021/06/15 19:33:30;;;;;;;29.03;9.00;;;;;;;19.82;45.29;99054.75;2175064;81;20953;-67
2021/06/15 19:36:30;;;;;;;32.63;12.70;;;;;;;19.55;45.26;99058.55;2175089;81;21023;-66
2021/06/15 19:39:31;;;;;;;30.87;11.37;;;;;;;19.31;46.00;99052.39;2175131;81;20980;-68
2021/06/15 19:42:37;;;;;;;31.20;10.40;;;;;;;19.11;46.63;99054.25;2174636;82;21065;-68
2021/06/15 19:45:35;;;;;;;31.45;11.63;;;;;;;18.91;47.42;99058.75;2145977;82;21051;-69
2021/06/15 19:48:35;;;;;;;32.15;11.55;;;;;;;18.70;47.56;99056.20;2175130;82;20977;-73
2021/06/15 19:51:36;;;;;;;31.00;12.37;;;;;;;18.55;48.41;99058.45;2174659;82;21036;-70
2021/06/15 19:54:36;;;;;;;30.77;12.10;;;;;;;18.40;48.96;99059.83;2174973;81;20990;-70
2021/06/15 19:57:37;;;;;;;33.05;12.45;;;;;;;18.24;49.61;99065.17;2174918;82;21538;-71
2021/06/15 20:00:37;;;;;;;34.10;13.45;;;;;;;18.10;49.80;99060.25;2175398;81;21550;-78
2021/06/15 20:03:38;;;;;;;35.55;15.30;;;;;;;17.96;50.25;99064.15;2174806;82;21068;-70
2021/06/15 20:06:39;;;;;;;37.67;16.52;;;;;;;17.79;50.70;99063.77;2185391;81;21088;-77
2021/06/15 20:09:40;;;;;;;35.30;16.50;;;;;;;17.65;51.67;99065.45;2167804;82;20973;-75
2021/06/15 20:12:42;;;;;;;34.27;17.80;;;;;;;17.48;52.02;99065.11;2184209;81;20976;-71
2021/06/15 20:15:43;;;;;;;45.88;23.30;;;;;;;17.35;52.76;99067.11;2179717;81;21014;-68
2021/06/15 20:18:46;;;;;;;51.23;26.12;;;;;;;17.20;53.42;99068.44;2165883;82;21616;-68
2021/06/15 20:21:46;;;;;;;53.33;28.45;;;;;;;17.06;53.31;99071.75;2136771;81;21091;-70
2021/06/15 20:24:49;;;;;;;50.28;27.40;;;;;;;16.92;53.96;99072.06;2169144;82;21446;-68
2021/06/15 20:27:49;;;;;;;49.23;26.62;;;;;;;16.77;54.53;99069.70;2130383;83;21466;-68
2021/06/15 20:30:50;;;;;;;46.15;22.32;;;;;;;16.62;54.21;99071.81;2130575;83;20979;-69
2021/06/15 20:33:51;;;;;;;39.75;18.62;;;;;;;16.54;55.40;99074.24;2130145;83;21074;-71
2021/06/15 20:36:51;;;;;;;39.85;19.40;;;;;;;16.46;55.65;99076.66;2130644;83;20991;-67
2021/06/15 20:39:52;;;;;;;39.23;19.15;;;;;;;16.36;55.73;99069.95;2130228;83;21030;-67
2021/06/15 20:42:54;;;;;;;;;;;;;;;16.31;56.29;99073.97;2132417;82;20979;-68
2021/06/15 20:45:55;;;;;;;35.48;18.20;;;;;;;16.22;56.88;99078.16;2130303;83;20141;-68
2021/06/15 20:48:56;;;;;;;37.00;17.70;;;;;;;16.10;57.00;99078.22;2130687;83;20979;-67
2021/06/15 20:51:57;;;;;;;36.75;16.67;;;;;;;16.01;57.31;99080.75;2131745;83;21014;-67
2021/06/15 20:54:58;;;;;;;35.68;16.93;;;;;;;15.93;57.58;99077.37;2132232;83;21585;-66
2021/06/15 20:57:59;;;;;;;31.48;15.05;;;;;;;15.90;57.63;99077.61;2132467;82;20975;-65
2021/06/15 21:01:00;;;;;;;30.77;13.30;;;;;;;15.83;58.18;99076.41;2132727;82;21004;-64
2021/06/15 21:04:00;;;;;;;31.40;12.20;;;;;;;15.72;58.24;99067.98;2164303;82;20983;-65
2021/06/15 21:07:02;;;;;;;31.33;13.08;;;;;;;15.64;58.75;99078.31;2225472;80;21466;-65
2021/06/15 21:10:03;;;;;;;32.63;12.88;;;;;;;15.55;59.18;99075.91;2225936;80;21054;-66
2021/06/15 21:13:03;;;;;;;26.62;11.73;;;;;;;15.48;59.26;99072.89;2225662;80;21038;-65
2021/06/15 21:16:03;;;;;;;27.42;11.70;;;;;;;15.45;59.67;99082.38;2225584;80;21003;-65
2021/06/15 21:19:04;;;;;;;28.00;11.57;;;;;;;15.41;59.63;99082.25;2226057;80;20947;-65
2021/06/15 21:22:05;;;;;;;26.75;12.20;;;;;;;15.36;60.04;99080.47;2227372;79;21030;-65
2021/06/15 21:25:07;;;;;;;26.23;12.43;;;;;;;15.32;60.19;99082.48;2239539;79;20958;-65
2021/06/15 21:28:07;;;;;;;27.03;12.07;;;;;;;15.28;60.87;99090.28;2239796;79;21566;-65
2021/06/15 21:31:08;;;;;;;29.48;12.47;;;;;;;15.16;60.94;99087.27;2239659;79;21050;-65
2021/06/15 21:34:09;;;;;;;27.90;11.15;;;;;;;15.03;60.90;99086.86;2239479;79;21504;-65
2021/06/15 21:37:10;;;;;;;27.50;10.23;;;;;;;14.90;61.81;99092.22;2239525;79;20927;-65
2021/06/15 21:40:10;;;;;;;26.65;11.18;;;;;;;14.82;62.25;99087.98;2239551;79;20967;-66
2021/06/15 21:43:11;;;;;;;27.17;11.60;;;;;;;14.80;63.02;99085.95;2239582;79;21042;-66
2021/06/15 21:46:12;;;;;;;26.55;12.25;;;;;;;14.74;62.32;99089.05;2239547;79;20991;-67
2021/06/15 21:49:13;;;;;;;31.35;13.98;;;;;;;14.71;63.10;99098.49;2239783;79;20959;-66
2021/06/15 21:52:14;;;;;;;32.03;13.90;;;;;;;14.64;63.44;99092.84;2239285;79;21070;-66
2021/06/15 21:55:15;;;;;;;25.97;10.85;;;;;;;14.59;63.04;99100.70;2239694;79;20971;-66
2021/06/15 21:58:15;;;;;;;28.23;13.30;;;;;;;14.56;63.80;99101.77;2239658;79;20962;-66
2021/06/15 22:01:16;;;;;;;30.43;13.08;;;;;;;14.50;63.49;99103.05;2239654;79;20935;-65
2021/06/15 22:04:16;;;;;;;29.00;12.88;;;;;;;14.47;63.67;99100.64;2239783;79;21527;-66
2021/06/15 22:07:17;;;;;;;24.72;10.05;;;;;;;14.41;64.45;99102.41;2239777;79;21627;-65
2021/06/15 22:10:17;;;;;;;29.48;12.45;;;;;;;14.38;64.85;99105.28;2239430;79;21076;-65
2021/06/15 22:13:18;;;;;;;27.58;11.22;;;;;;;14.35;65.38;99105.48;2239528;79;20939;-65
2021/06/15 22:16:18;;;;;;;27.07;11.38;;;;;;;14.28;65.69;99104.23;2239695;79;20966;-65
2021/06/15 22:19:18;;;;;;;27.05;11.38;;;;;;;14.29;65.45;99108.56;2239678;79;20931;-66
2021/06/15 22:22:19;;;;;;;26.17;11.63;;;;;;;14.24;65.43;99108.04;2239543;79;20987;-65
2021/06/15 22:25:19;;;;;;;24.80;10.53;;;;;;;14.14;65.45;99102.61;2239639;79;21009;-66
2021/06/15 22:28:20;;;;;;;24.67;10.38;;;;;;;14.09;65.63;99095.48;2239635;79;21034;-67
2021/06/15 22:31:20;;;;;;;25.88;9.83;;;;;;;14.10;65.93;99101.97;2239634;79;21019;-66
2021/06/15 22:34:22;;;;;;;24.12;10.18;;;;;;;14.09;65.90;99100.27;2239290;79;21010;-66
2021/06/15 22:37:23;;;;;;;25.72;10.50;;;;;;;14.09;66.01;99105.55;2239827;79;20990;-65
2021/06/15 22:40:23;;;;;;;25.48;10.60;;;;;;;14.07;65.87;99100.03;2239654;79;21442;-66
2021/06/15 22:43:23;;;;;;;25.52;10.35;;;;;;;14.00;66.07;99097.81;2239722;79;21000;-67
2021/06/15 22:46:24;;;;;;;24.45;10.80;;;;;;;13.91;66.76;99096.33;2239809;79;20986;-66
2021/06/15 22:49:24;;;;;;;26.05;10.63;;;;;;;13.89;66.26;99103.48;2239865;79;20983;-66
2021/06/15 22:52:25;;;;;;;27.35;10.43;;;;;;;13.82;66.68;99097.34;2239608;79;21006;-66
2021/06/15 22:55:25;;;;;;;26.62;9.80;;;;;;;13.76;66.88;99097.73;2239821;79;20959;-66
2021/06/15 22:58:26;;;;;;;24.63;9.38;;;;;;;13.71;67.01;99090.65;2239748;79;20971;-66
2021/06/15 23:01:26;;;;;;;28.07;10.50;;;;;;;13.68;67.11;99095.65;2239879;79;21009;-65
2021/06/15 23:04:27;;;;;;;27.02;11.03;;;;;;;13.65;67.08;99093.72;2239837;79;21025;-65
2021/06/15 23:07:27;;;;;;;30.02;11.70;;;;;;;13.62;67.46;99095.22;2239652;79;21045;-66
2021/06/15 23:10:28;;;;;;;24.92;9.80;;;;;;;13.59;67.30;99098.94;2239792;79;20978;-65
2021/06/15 23:13:28;;;;;;;24.80;10.35;;;;;;;13.57;67.46;99095.55;2239814;79;21487;-65
2021/06/15 23:16:28;;;;;;;24.90;10.20;;;;;;;13.52;67.65;99093.72;2239692;79;20982;-66
2021/06/15 23:19:29;;;;;;;25.48;10.15;;;;;;;13.46;67.73;99096.76;2239692;79;21005;-66
2021/06/15 23:22:29;;;;;;;25.57;9.98;;;;;;;13.43;67.93;99104.42;2238462;79;20990;-66
2021/06/15 23:25:30;;;;;;;27.52;10.28;;;;;;;13.41;68.28;99102.84;2221620;80;20983;-65
2021/06/15 23:28:30;;;;;;;24.07;9.75;;;;;;;13.34;68.52;99104.55;2221772;80;20967;-66
2021/06/15 23:31:31;;;;;;;27.60;10.55;;;;;;;13.29;68.79;99108.44;2221616;80;21478;-65
2021/06/15 23:34:32;;;;;;;21.73;8.53;;;;;;;13.25;68.88;99108.27;2221506;80;21074;-67
2021/06/15 23:37:32;;;;;;;7.40;3.33;;;;;;;13.17;68.86;99106.14;2221776;80;20960;-67
2021/06/15 23:40:33;;;;;;;16.87;4.90;;;;;;;13.05;69.38;99110.92;2221655;80;20990;-67
2021/06/15 23:43:34;;;;;;;20.12;6.65;;;;;;;12.97;69.61;99110.10;2221480;80;20996;-67
2021/06/15 23:46:34;;;;;;;20.30;7.37;;;;;;;12.97;69.73;99109.65;2221556;80;21029;-65
2021/06/15 23:49:35;;;;;;;24.55;9.68;;;;;;;12.98;69.91;99109.16;2221887;80;20963;-66
2021/06/15 23:52:35;;;;;;;23.45;9.00;;;;;;;12.95;70.05;99104.11;2221729;80;20951;-65
2021/06/15 23:55:36;;;;;;;26.97;11.08;;;;;;;12.92;70.34;99107.78;2221578;80;20967;-65
2021/06/15 23:58:36;;;;;;;22.62;9.53;;;;;;;12.93;70.33;99111.25;2221767;80;21523;-65
